Ocean Park, Maine
Current Conditions -  °F | °C
As of 7:51 PM on Tuesday 21 Oct 2014 (Local Time) from KPWM Reporting Station
Light Rain Light Rain  
Wind Chill: 53°   Ceiling: 600
Heat Index: 53°   Visibility: 10mi
Dew Point: 51°   Wind: 13mph
Humidity: 93%   Direction: 20°NNE
Pressure: 30.01"   Gusts: NA
Location:  43.5°N, 70.39°W
Report Text: KPWM 212351Z 02011KT 10SM -RA OVC006 12/11 A3001 RMK AO2 RAB2254E20B42 SLP162 P0000 60040 T01170106 10128 20117 53006
Loading
Personal Weather Stations






























Interactive Weather Map
Tropical Storm Tracking
New forecast layout! Learn more

10-Day Weather Forecast

Advertisements
Track Severe Weather on mobile